Time;durP1;ratioP1;P1;durP2;ratioP2;P2;SDS_P1;SDS_P2;PMS_P1;PMS_P2;Temp;Humidity;BMP_temperature;BMP_pressure;BME280_temperature;BME280_humidity;BME280_pressure;Samples;Min_cycle;Max_cycle;Signal;HPM_P1;HPM_P2
2024/03/30 00:00:53;;;;;;;28.42;15.25;;;14.00;88.00;;;;;;4987069;28;20436;-70
2024/03/30 00:03:38;;;;;;;22.38;12.38;;;14.30;87.60;;;;;;4981490;28;20058;-72
2024/03/30 00:06:04;;;;;;;22.05;13.15;;;14.20;87.00;;;;;;4954477;28;20042;-70
2024/03/30 00:08:32;;;;;;;19.25;10.88;;;14.30;87.10;;;;;;4970031;28;20085;-71
2024/03/30 00:11:00;;;;;;;19.67;10.48;;;14.40;86.10;;;;;;4982509;28;20038;-71
2024/03/30 00:13:29;;;;;;;14.82;9.77;;;14.40;86.10;;;;;;4970332;28;20031;-71
2024/03/30 00:15:56;;;;;;;17.20;8.93;;;14.10;86.10;;;;;;4962146;28;20030;-73
2024/03/30 00:18:22;;;;;;;19.15;10.43;;;13.90;87.50;;;;;;4982080;28;20042;-71
2024/03/30 00:20:50;;;;;;;20.75;9.38;;;14.10;86.70;;;;;;4974917;28;20047;-70
2024/03/30 00:23:16;;;;;;;15.05;8.73;;;13.80;87.70;;;;;;4977000;28;20060;-71
2024/03/30 00:25:54;;;;;;;11.77;8.20;;;13.70;88.20;;;;;;4976975;28;20490;-71
2024/03/30 00:28:21;;;;;;;17.35;9.07;;;14.00;87.10;;;;;;4970064;28;20043;-69
2024/03/30 00:30:48;;;;;;;16.83;9.60;;;14.10;86.60;;;;;;4969485;28;20031;-70
2024/03/30 00:33:15;;;;;;;18.27;9.25;;;14.10;86.70;;;;;;4965207;28;20035;-70
2024/03/30 00:35:42;;;;;;;12.55;8.25;;;14.00;87.20;;;;;;4970140;28;20027;-71
2024/03/30 00:38:09;;;;;;;15.57;7.80;;;14.00;86.30;;;;;;4971328;28;20043;-69
2024/03/30 00:40:36;;;;;;;12.50;7.40;;;14.00;85.60;;;;;;4965195;28;20035;-68
2024/03/30 00:43:03;;;;;;;13.20;7.63;;;14.00;85.50;;;;;;4987049;28;20042;-69
2024/03/30 00:45:29;;;;;;;14.80;7.50;;;14.00;85.80;;;;;;4969859;28;20048;-69
2024/03/30 00:47:56;;;;;;;10.27;7.40;;;14.10;85.80;;;;;;4969954;28;20034;-70
2024/03/30 00:50:23;;;;;;;14.10;7.03;;;14.00;85.50;;;;;;4953911;28;20039;-72
2024/03/30 00:52:51;;;;;;;14.13;6.68;;;13.80;87.00;;;;;;4972878;28;20047;-74
2024/03/30 00:55:17;;;;;;;14.13;6.72;;;13.50;87.50;;;;;;4964181;28;20050;-70
2024/03/30 00:57:43;;;;;;;14.93;6.55;;;13.20;88.70;;;;;;4972370;28;20058;-72
2024/03/30 01:00:10;;;;;;;11.35;7.45;;;13.20;89.00;;;;;;4964017;28;20046;-71
2024/03/30 01:02:40;;;;;;;12.70;7.30;;;13.10;89.40;;;;;;4971745;28;20034;-71
2024/03/30 01:05:08;;;;;;;11.77;7.18;;;12.80;90.00;;;;;;4953853;28;20039;-71
2024/03/30 01:07:34;;;;;;;12.07;7.00;;;12.70;90.50;;;;;;4982163;28;20038;-72
2024/03/30 01:10:04;;;;;;;10.63;6.82;;;12.70;90.40;;;;;;4969524;28;20051;-70
2024/03/30 01:12:31;;;;;;;9.40;6.68;;;12.90;90.10;;;;;;4972115;28;20034;-69
2024/03/30 01:14:58;;;;;;;11.18;7.35;;;13.20;89.40;;;;;;4959892;28;20039;-70
2024/03/30 01:17:25;;;;;;;12.77;6.63;;;13.40;88.50;;;;;;4976258;28;20356;-71
2024/03/30 01:19:51;;;;;;;12.60;7.40;;;13.50;88.20;;;;;;4971687;28;20485;-71
2024/03/30 01:22:19;;;;;;;11.25;6.80;;;13.50;87.90;;;;;;4982415;28;20057;-70
2024/03/30 01:24:46;;;;;;;10.77;7.05;;;13.60;87.30;;;;;;4970489;28;20132;-72
2024/03/30 01:27:16;;;;;;;10.65;6.90;;;13.60;87.60;;;;;;4964881;28;20072;-71
2024/03/30 01:29:43;;;;;;;12.48;7.50;;;13.10;88.40;;;;;;5007938;28;20093;-71
2024/03/30 01:32:12;;;;;;;12.48;7.30;;;13.10;88.90;;;;;;4998891;28;20033;-73
2024/03/30 01:34:38;;;;;;;10.85;6.38;;;13.20;89.20;;;;;;4976672;28;20034;-69
2024/03/30 01:37:04;;;;;;;11.30;6.35;;;13.00;89.20;;;;;;4971331;28;20532;-70
2024/03/30 01:39:31;;;;;;;11.30;6.50;;;12.60;90.30;;;;;;4987605;28;20035;-69
2024/03/30 01:41:57;;;;;;;13.02;6.90;;;12.60;90.40;;;;;;4953038;28;20440;-69
2024/03/30 01:44:24;;;;;;;12.60;6.38;;;12.90;90.10;;;;;;4968708;28;20393;-68
2024/03/30 01:46:52;;;;;;;9.88;6.32;;;13.10;89.30;;;;;;4960159;28;20393;-70
2024/03/30 01:49:20;;;;;;;9.50;5.75;;;13.20;88.70;;;;;;4974542;28;20027;-71
2024/03/30 01:51:49;;;;;;;12.20;6.40;;;13.20;88.50;;;;;;4977736;28;20077;-70
2024/03/30 01:54:19;;;;;;;9.40;6.35;;;13.20;88.60;;;;;;4976330;28;20030;-70
2024/03/30 01:56:46;;;;;;;8.82;5.53;;;13.20;88.50;;;;;;4972429;28;20034;-69
2024/03/30 01:59:13;;;;;;;10.45;6.05;;;13.20;88.30;;;;;;4971922;28;20048;-70
2024/03/30 02:01:45;;;;;;;10.98;5.35;;;13.30;88.00;;;;;;4971971;28;20034;-68
2024/03/30 02:04:13;;;;;;;9.90;5.70;;;13.40;87.90;;;;;;4971736;28;20095;-69
2024/03/30 02:06:41;;;;;;;11.25;5.70;;;13.20;87.90;;;;;;4965734;28;20045;-69
2024/03/30 02:09:10;;;;;;;8.63;5.45;;;13.10;88.40;;;;;;4973623;28;20038;-71
2024/03/30 02:11:39;;;;;;;5.90;4.63;;;13.20;88.40;;;;;;4972129;28;20038;-71
2024/03/30 02:14:07;;;;;;;8.63;5.72;;;12.90;89.20;;;;;;4995092;28;20034;-71
2024/03/30 02:16:35;;;;;;;9.32;5.38;;;12.80;89.90;;;;;;4963715;28;20050;-71
2024/03/30 02:19:04;;;;;;;8.45;5.28;;;12.60;90.20;;;;;;4977124;28;20041;-71
2024/03/30 02:21:31;;;;;;;9.60;5.43;;;12.20;90.70;;;;;;4977345;28;20090;-72
2024/03/30 02:23:57;;;;;;;9.27;5.88;;;12.30;90.90;;;;;;4999302;28;20358;-69
2024/03/30 02:26:24;;;;;;;9.65;5.00;;;12.40;90.90;;;;;;4968019;28;20423;-71
2024/03/30 02:28:52;;;;;;;7.45;5.03;;;12.20;91.00;;;;;;4955812;28;20473;-72
2024/03/30 02:31:19;;;;;;;8.65;5.93;;;12.20;91.00;;;;;;4971560;28;20030;-72
2024/03/30 02:33:46;;;;;;;8.32;4.80;;;12.30;91.30;;;;;;4971594;28;20486;-72
2024/03/30 02:36:14;;;;;;;8.10;5.43;;;12.20;91.00;;;;;;4971845;28;20061;-72
2024/03/30 02:38:40;;;;;;;9.63;5.38;;;12.30;91.30;;;;;;5035492;28;20031;-70
2024/03/30 02:41:07;;;;;;;8.88;5.45;;;12.40;91.30;;;;;;4955645;28;20038;-70
2024/03/30 02:43:33;;;;;;;7.45;5.28;;;12.40;90.90;;;;;;4971523;28;20482;-70
2024/03/30 02:45:59;;;;;;;9.18;5.50;;;12.50;91.00;;;;;;4971505;28;20389;-70
2024/03/30 02:48:25;;;;;;;11.43;5.75;;;12.60;90.90;;;;;;4977948;28;20034;-71
2024/03/30 02:50:52;;;;;;;13.52;5.72;;;12.80;90.50;;;;;;4971128;28;20058;-71
2024/03/30 02:53:18;;;;;;;8.88;5.72;;;12.70;90.30;;;;;;4954935;28;20042;-70
2024/03/30 02:55:44;;;;;;;9.43;5.25;;;12.70;90.30;;;;;;4940358;28;20500;-71
2024/03/30 02:58:10;;;;;;;7.50;4.80;;;12.80;90.80;;;;;;4978737;28;20045;-69
2024/03/30 03:00:36;;;;;;;11.70;5.38;;;12.80;90.50;;;;;;4977508;28;20117;-71
2024/03/30 03:03:03;;;;;;;8.63;5.80;;;12.50;90.80;;;;;;4982446;28;20034;-71
2024/03/30 03:05:29;;;;;;;8.70;5.68;;;12.50;90.80;;;;;;4973848;28;20084;-71
2024/03/30 03:07:55;;;;;;;8.77;5.40;;;12.40;90.90;;;;;;4981884;28;20033;-70
2024/03/30 03:10:21;;;;;;;8.32;5.20;;;12.50;91.20;;;;;;4971014;28;20035;-69
2024/03/30 03:12:49;;;;;;;10.27;5.78;;;12.40;91.10;;;;;;4971069;28;20116;-71
2024/03/30 03:15:15;;;;;;;9.20;5.72;;;12.40;91.30;;;;;;4955696;28;20046;-72
2024/03/30 03:17:41;;;;;;;8.98;5.60;;;12.50;91.10;;;;;;4971276;28;20030;-71
2024/03/30 03:20:08;;;;;;;11.82;7.82;;;12.40;91.00;;;;;;4971018;28;21196;-71
2024/03/30 03:22:35;;;;;;;13.63;7.35;;;12.10;91.70;;;;;;4989729;28;20417;-73
2024/03/30 03:25:03;;;;;;;15.82;8.65;;;12.00;91.60;;;;;;4978277;28;20034;-71
2024/03/30 03:27:29;;;;;;;14.73;7.13;;;12.00;91.60;;;;;;4976000;28;20619;-72
2024/03/30 03:29:55;;;;;;;11.23;7.50;;;11.90;91.60;;;;;;4971106;28;20035;-71
2024/03/30 03:32:21;;;;;;;11.07;6.85;;;11.70;91.80;;;;;;4970814;28;20383;-70
2024/03/30 03:34:47;;;;;;;12.27;7.95;;;11.40;92.00;;;;;;4970786;28;20063;-71
2024/03/30 03:37:13;;;;;;;10.90;7.07;;;11.40;92.30;;;;;;4970629;28;20119;-70
2024/03/30 03:39:40;;;;;;;13.70;7.63;;;11.60;91.90;;;;;;4967342;28;20033;-69
2024/03/30 03:42:06;;;;;;;11.40;6.95;;;11.60;91.70;;;;;;4970785;28;20115;-70
2024/03/30 03:44:32;;;;;;;9.75;6.05;;;11.40;91.70;;;;;;4970082;28;20038;-70
2024/03/30 03:47:17;;;;;;;12.93;6.05;;;11.60;91.50;;;;;;4998707;28;20045;-69
2024/03/30 03:49:44;;;;;;;8.63;6.25;;;11.60;91.20;;;;;;4973048;28;20052;-70
2024/03/30 03:52:10;;;;;;;12.15;6.22;;;11.50;91.40;;;;;;4992510;28;20443;-70
2024/03/30 03:54:36;;;;;;;11.98;5.88;;;11.40;91.60;;;;;;4970575;28;20035;-70
2024/03/30 03:57:03;;;;;;;11.25;6.60;;;11.30;91.70;;;;;;4970672;28;20068;-70
2024/03/30 03:59:29;;;;;;;10.27;5.97;;;11.20;91.70;;;;;;4970715;28;20397;-69
2024/03/30 04:01:55;;;;;;;9.10;6.18;;;11.10;92.30;;;;;;4939620;28;20046;-69
2024/03/30 04:04:21;;;;;;;10.75;5.93;;;11.10;92.10;;;;;;4980017;28;20034;-71
2024/03/30 04:06:47;;;;;;;12.18;6.03;;;11.30;92.00;;;;;;4981093;28;20067;-69
2024/03/30 04:09:15;;;;;;;8.07;6.20;;;11.00;92.50;;;;;;4973633;28;20042;-67
2024/03/30 04:11:41;;;;;;;11.60;6.55;;;11.10;92.50;;;;;;4973570;28;20084;-68
2024/03/30 04:14:07;;;;;;;8.43;6.05;;;11.10;92.60;;;;;;4986376;28;20390;-68
2024/03/30 04:16:34;;;;;;;14.55;6.85;;;11.20;92.40;;;;;;4973742;28;20038;-71
2024/03/30 04:19:00;;;;;;;9.27;5.90;;;11.20;92.20;;;;;;4992724;28;20030;-69
2024/03/30 04:21:27;;;;;;;9.50;5.90;;;11.10;92.30;;;;;;4998884;28;20133;-70
2024/03/30 04:23:53;;;;;;;9.80;6.13;;;11.00;92.80;;;;;;4982344;28;20034;-68
2024/03/30 04:26:20;;;;;;;9.75;5.95;;;11.10;92.50;;;;;;4973650;28;20034;-69
2024/03/30 04:28:46;;;;;;;11.88;6.47;;;11.40;92.20;;;;;;4968479;28;20476;-70
2024/03/30 04:31:12;;;;;;;9.18;5.80;;;11.10;92.20;;;;;;4974480;28;20030;-69
2024/03/30 04:33:38;;;;;;;12.63;6.43;;;11.20;92.10;;;;;;4990313;28;20045;-69
2024/03/30 04:36:06;;;;;;;10.07;6.10;;;11.10;92.30;;;;;;4981972;28;20034;-71
2024/03/30 04:38:34;;;;;;;11.43;6.07;;;11.30;92.20;;;;;;4973271;28;20434;-68
2024/03/30 04:41:07;;;;;;;10.30;6.18;;;11.30;92.10;;;;;;4973677;28;20431;-70
2024/03/30 04:43:36;;;;;;;8.90;6.35;;;11.30;92.00;;;;;;4960890;28;20394;-70
2024/03/30 04:46:04;;;;;;;11.40;6.78;;;11.40;92.20;;;;;;4963373;28;20050;-69
2024/03/30 04:48:30;;;;;;;10.48;6.68;;;11.50;91.90;;;;;;4973307;28;20087;-71
2024/03/30 04:51:02;;;;;;;8.95;6.38;;;11.60;91.90;;;;;;4973118;28;20038;-72
2024/03/30 04:53:33;;;;;;;9.43;6.05;;;11.60;91.60;;;;;;4972832;28;20039;-69
2024/03/30 04:56:01;;;;;;;9.27;6.57;;;11.60;91.80;;;;;;4973055;28;20034;-70
2024/03/30 04:58:29;;;;;;;10.05;6.40;;;11.70;91.50;;;;;;4972811;28;20039;-71
2024/03/30 05:01:01;;;;;;;9.93;6.28;;;11.70;91.40;;;;;;4972697;28;20037;-71
2024/03/30 05:03:27;;;;;;;10.57;6.00;;;11.50;92.00;;;;;;4983682;28;20041;-72
2024/03/30 05:05:53;;;;;;;10.18;6.57;;;11.60;91.80;;;;;;4974824;28;20038;-70
2024/03/30 05:08:20;;;;;;;14.45;6.40;;;11.50;91.80;;;;;;4972650;28;20079;-71
2024/03/30 05:10:46;;;;;;;10.68;6.10;;;11.60;91.80;;;;;;4972568;28;20035;-72
2024/03/30 05:13:12;;;;;;;10.15;6.43;;;11.60;91.50;;;;;;4973118;28;20054;-71
2024/03/30 05:15:40;;;;;;;12.65;6.45;;;11.70;91.60;;;;;;4972682;28;20030;-72
2024/03/30 05:18:09;;;;;;;8.32;6.38;;;11.70;91.20;;;;;;4984975;28;20053;-70
2024/03/30 05:20:48;;;;;;;9.10;6.13;;;11.50;91.90;;;;;;4990922;28;20492;-69
2024/03/30 05:23:20;;;;;;;8.90;6.40;;;11.60;91.60;;;;;;4992638;28;20045;-70
2024/03/30 05:25:48;;;;;;;11.35;6.72;;;11.50;92.00;;;;;;4978518;28;20045;-70
2024/03/30 05:28:16;;;;;;;9.55;5.97;;;11.60;91.80;;;;;;4973071;28;20087;-71
2024/03/30 05:30:43;;;;;;;13.63;6.35;;;11.80;91.50;;;;;;4985043;28;20410;-67
2024/03/30 05:33:11;;;;;;;12.30;6.28;;;12.10;91.30;;;;;;4989857;28;20366;-72
2024/03/30 05:35:37;;;;;;;11.52;6.57;;;12.40;90.80;;;;;;4979582;28;20362;-71
2024/03/30 05:38:04;;;;;;;10.90;6.57;;;12.30;91.00;;;;;;4977677;28;20030;-71
2024/03/30 05:40:32;;;;;;;10.88;6.50;;;12.30;91.20;;;;;;4960778;28;20099;-73
2024/03/30 05:43:03;;;;;;;9.85;6.13;;;12.50;91.30;;;;;;4972068;28;20034;-71
2024/03/30 05:45:35;;;;;;;11.55;6.72;;;12.60;91.20;;;;;;4972423;28;20038;-71
2024/03/30 05:48:03;;;;;;;9.80;6.55;;;12.80;90.90;;;;;;4984999;28;20100;-72
2024/03/30 05:50:30;;;;;;;10.65;7.35;;;12.90;90.50;;;;;;4966551;28;20053;-70
2024/03/30 05:52:56;;;;;;;11.80;6.95;;;13.00;90.10;;;;;;4973510;28;20542;-70
2024/03/30 05:55:23;;;;;;;14.20;6.82;;;12.70;90.30;;;;;;4958608;28;20049;-68
2024/03/30 05:58:03;;;;;;;8.98;7.07;;;12.80;90.50;;;;;;4967635;28;20381;-70
2024/03/30 06:00:30;;;;;;;15.02;7.47;;;13.00;90.30;;;;;;4972228;28;20039;-68
2024/03/30 06:02:57;;;;;;;14.40;7.55;;;13.10;90.00;;;;;;4960268;28;20035;-73
2024/03/30 06:05:25;;;;;;;14.05;6.90;;;13.20;90.00;;;;;;4966998;28;20440;-72
2024/03/30 06:07:51;;;;;;;11.60;7.63;;;13.20;90.00;;;;;;4983495;28;20091;-71
2024/03/30 06:10:17;;;;;;;9.40;7.07;;;13.20;90.10;;;;;;4972258;28;20087;-68
2024/03/30 06:12:43;;;;;;;8.73;6.82;;;13.20;90.20;;;;;;4956004;28;20038;-70
2024/03/30 06:15:09;;;;;;;14.30;8.05;;;13.30;89.90;;;;;;4968964;28;20476;-70
2024/03/30 06:17:36;;;;;;;16.02;8.10;;;13.10;90.20;;;;;;4972282;28;20045;-69
2024/03/30 06:20:08;;;;;;;13.65;8.38;;;13.10;90.40;;;;;;4973546;28;20034;-70
2024/03/30 06:22:35;;;;;;;19.75;8.10;;;13.20;90.60;;;;;;5027865;28;20034;-70
2024/03/30 06:25:03;;;;;;;15.80;8.27;;;13.20;90.60;;;;;;4971462;28;20390;-70
2024/03/30 06:27:33;;;;;;;13.43;7.60;;;13.20;90.50;;;;;;4984884;28;20042;-70
2024/03/30 06:30:00;;;;;;;14.43;8.23;;;13.30;90.50;;;;;;4975481;28;20042;-70
2024/03/30 06:32:26;;;;;;;13.10;8.50;;;13.30;90.60;;;;;;4959358;28;20389;-70
2024/03/30 06:34:52;;;;;;;11.90;7.78;;;13.30;90.70;;;;;;4976766;28;20076;-70
2024/03/30 06:37:19;;;;;;;16.15;8.93;;;13.30;90.50;;;;;;4971902;28;20456;-69
2024/03/30 06:45:22;;;;;;;12.27;8.30;;;13.40;90.40;;;;;;4975403;28;20038;-70
2024/03/30 06:47:50;;;;;;;15.32;8.40;;;13.40;90.40;;;;;;4971180;28;20039;-69
2024/03/30 06:50:17;;;;;;;11.07;7.75;;;13.50;90.30;;;;;;4971762;28;20681;-69
2024/03/30 06:52:43;;;;;;;11.40;7.63;;;13.50;90.30;;;;;;4971332;28;20095;-67
2024/03/30 06:55:10;;;;;;;11.73;7.30;;;13.50;90.20;;;;;;4971596;28;20521;-70
2024/03/30 06:57:37;;;;;;;9.73;7.15;;;13.70;90.10;;;;;;4973809;28;20050;-71
2024/03/30 07:00:04;;;;;;;12.48;7.85;;;13.80;90.00;;;;;;4981561;28;20035;-72
2024/03/30 07:02:32;;;;;;;13.23;7.70;;;13.90;90.10;;;;;;4974560;28;20045;-70
2024/03/30 07:04:58;;;;;;;14.25;8.02;;;14.10;89.90;;;;;;4980372;28;20104;-73
2024/03/30 07:07:24;;;;;;;12.48;7.60;;;14.10;89.80;;;;;;4971344;28;20365;-71
2024/03/30 07:09:52;;;;;;;13.00;7.47;;;14.00;90.00;;;;;;4980238;28;20034;-70
2024/03/30 07:12:19;;;;;;;12.15;7.50;;;13.80;90.70;;;;;;4983994;28;20045;-70
2024/03/30 07:14:45;;;;;;;11.90;7.05;;;13.90;90.20;;;;;;4971637;28;20042;-72
2024/03/30 07:17:11;;;;;;;11.30;6.55;;;14.10;90.10;;;;;;4967549;28;20043;-71
2024/03/30 07:19:39;;;;;;;10.00;6.53;;;14.20;90.10;;;;;;4962693;28;20092;-70
2024/03/30 07:22:05;;;;;;;13.00;7.50;;;14.50;89.80;;;;;;4973227;28;20039;-71
2024/03/30 07:24:32;;;;;;;10.77;7.45;;;14.50;88.70;;;;;;4970855;28;20120;-72
2024/03/30 07:26:59;;;;;;;11.88;7.10;;;14.70;89.70;;;;;;4955047;28;20035;-71
2024/03/30 07:29:25;;;;;;;11.55;6.80;;;14.80;89.10;;;;;;4971012;28;20034;-71
2024/03/30 07:31:54;;;;;;;12.77;6.75;;;14.90;88.80;;;;;;4973717;28;20614;-72
2024/03/30 07:34:22;;;;;;;13.15;6.50;;;14.90;88.50;;;;;;4964004;28;20046;-70
2024/03/30 07:36:48;;;;;;;13.27;6.93;;;15.00;88.20;;;;;;4959006;28;20061;-70
2024/03/30 07:39:14;;;;;;;8.68;6.13;;;15.10;87.90;;;;;;4983130;28;20046;-72
2024/03/30 07:41:41;;;;;;;9.82;6.70;;;15.20;87.10;;;;;;4984314;28;20042;-71
2024/03/30 07:44:07;;;;;;;14.50;6.88;;;15.30;86.90;;;;;;4978877;28;20110;-72
2024/03/30 07:46:33;;;;;;;11.85;6.70;;;15.30;86.50;;;;;;4982987;28;20038;-69
2024/03/30 07:48:59;;;;;;;15.50;6.38;;;15.10;86.20;;;;;;4969040;28;20046;-70
2024/03/30 07:51:26;;;;;;;10.30;6.32;;;15.20;85.40;;;;;;4973509;28;20056;-71
2024/03/30 07:53:52;;;;;;;11.80;6.18;;;15.40;85.60;;;;;;4978086;28;20047;-70
2024/03/30 07:56:25;;;;;;;10.80;5.95;;;15.50;84.70;;;;;;4973905;28;20076;-68
2024/03/30 07:58:51;;;;;;;16.10;9.38;;;15.30;84.50;;;;;;4973832;28;20053;-70
2024/03/30 08:01:17;;;;;;;19.85;11.98;;;15.70;85.60;;;;;;4976503;28;20049;-67
2024/03/30 08:03:44;;;;;;;22.10;14.88;;;15.90;83.40;;;;;;4975840;28;20079;-69
2024/03/30 08:06:11;;;;;;;17.35;8.90;;;16.00;83.80;;;;;;4984453;28;20026;-73
2024/03/30 08:08:37;;;;;;;11.70;6.90;;;16.10;83.00;;;;;;4972455;28;20026;-73
2024/03/30 08:11:04;;;;;;;22.48;12.93;;;16.30;82.70;;;;;;4977951;28;20101;-68
2024/03/30 08:13:31;;;;;;;48.55;33.80;;;16.60;83.00;;;;;;4977047;28;20359;-66
2024/03/30 08:15:58;;;;;;;48.85;29.50;;;16.70;81.20;;;;;;4974525;28;20390;-71
2024/03/30 08:18:24;;;;;;;44.78;30.90;;;16.90;80.90;;;;;;4974150;28;20412;-69
2024/03/30 08:20:50;;;;;;;59.40;35.92;;;17.00;80.40;;;;;;4968347;28;20061;-69
2024/03/30 08:23:18;;;;;;;35.55;25.60;;;17.20;79.10;;;;;;4988933;28;20531;-74
2024/03/30 08:25:49;;;;;;;19.55;13.38;;;17.40;79.60;;;;;;4954431;28;20039;-73
2024/03/30 08:28:16;;;;;;;16.15;8.90;;;17.70;78.60;;;;;;4978234;28;20107;-70
2024/03/30 08:30:42;;;;;;;13.38;8.85;;;17.90;77.00;;;;;;4962545;28;20054;-69
2024/03/30 08:33:08;;;;;;;11.10;6.97;;;17.90;77.60;;;;;;4973467;28;20394;-71
2024/03/30 08:35:35;;;;;;;12.30;7.10;;;18.10;76.80;;;;;;5018311;28;20497;-71
2024/03/30 08:38:01;;;;;;;9.98;5.07;;;18.30;76.40;;;;;;4956744;28;20045;-70
2024/03/30 08:40:27;;;;;;;33.30;19.85;;;18.00;75.00;;;;;;4958716;28;20046;-70
2024/03/30 08:42:54;;;;;;;84.72;52.00;;;18.10;75.60;;;;;;4981838;28;20394;-71
2024/03/30 08:45:20;;;;;;;12.85;7.20;;;18.50;74.30;;;;;;4973899;28;20473;-71
2024/03/30 08:47:46;;;;;;;7.75;4.72;;;18.50;72.80;;;;;;4973586;28;20074;-70
2024/03/30 08:50:12;;;;;;;9.60;4.90;;;18.40;73.00;;;;;;4979206;28;20038;-71
2024/03/30 08:52:39;;;;;;;13.20;4.97;;;18.40;73.00;;;;;;4979465;28;20046;-69
2024/03/30 08:55:05;;;;;;;10.07;4.53;;;18.50;73.30;;;;;;4969995;28;20477;-73
2024/03/30 08:57:38;;;;;;;8.52;4.72;;;18.60;72.80;;;;;;4952916;28;20104;-71
2024/03/30 09:00:08;;;;;;;7.15;3.92;;;18.90;72.70;;;;;;4954229;28;20050;-71
2024/03/30 09:02:37;;;;;;;14.48;5.70;;;19.10;72.00;;;;;;4974232;28;20382;-69
2024/03/30 09:05:05;;;;;;;9.38;3.60;;;19.30;71.80;;;;;;4948197;28;20046;-75
2024/03/30 09:07:32;;;;;;;12.98;3.85;;;19.50;71.30;;;;;;4971568;28;20034;-77
2024/03/30 09:09:58;;;;;;;70.03;8.60;;;19.60;70.60;;;;;;4989760;28;20037;-76
2024/03/30 09:12:24;;;;;;;9.80;3.50;;;19.70;71.10;;;;;;4971052;28;20478;-76
2024/03/30 09:14:50;;;;;;;7.72;2.97;;;19.60;70.60;;;;;;4973616;28;20031;-77
2024/03/30 09:17:17;;;;;;;14.02;3.67;;;19.30;70.60;;;;;;4969810;28;20038;-78
2024/03/30 09:19:43;;;;;;;11.13;3.78;;;19.50;71.20;;;;;;4978629;28;20035;-76
2024/03/30 09:22:09;;;;;;;7.25;3.33;;;19.70;73.20;;;;;;4983305;28;20034;-79
2024/03/30 09:24:35;;;;;;;7.00;3.22;;;20.00;72.20;;;;;;4978125;28;20046;-72
2024/03/30 09:27:02;;;;;;;7.57;3.25;;;20.30;71.40;;;;;;4978696;28;20466;-73
2024/03/30 09:29:29;;;;;;;9.38;2.90;;;20.10;70.10;;;;;;4965028;28;20026;-74
2024/03/30 09:31:55;;;;;;;7.25;2.40;;;20.00;71.50;;;;;;4986120;28;20088;-75
2024/03/30 09:34:21;;;;;;;8.35;3.40;;;19.90;70.30;;;;;;4969092;28;20054;-73
2024/03/30 09:36:48;;;;;;;6.03;2.63;;;20.10;70.80;;;;;;4968916;28;20038;-73
2024/03/30 09:39:14;;;;;;;6.72;3.13;;;20.20;71.30;;;;;;4968936;28;20030;-74
2024/03/30 09:41:52;;;;;;;8.38;3.28;;;20.30;70.40;;;;;;4981716;28;20096;-76
2024/03/30 09:44:19;;;;;;;5.65;2.70;;;20.40;69.90;;;;;;4969400;28;20023;-73
2024/03/30 09:46:48;;;;;;;55.35;33.47;;;20.60;71.20;;;;;;4969082;28;20034;-72
2024/03/30 09:49:16;;;;;;;85.43;54.60;;;20.70;70.00;;;;;;4971106;28;20038;-74
2024/03/30 09:51:43;;;;;;;47.63;32.60;;;20.90;69.70;;;;;;4969984;28;20034;-73
2024/03/30 09:54:11;;;;;;;13.15;8.32;;;21.20;69.10;;;;;;4969178;28;20051;-72
2024/03/30 09:56:43;;;;;;;14.40;4.18;;;21.40;68.10;;;;;;4968768;28;20084;-74
2024/03/30 09:59:11;;;;;;;7.15;3.08;;;21.40;66.70;;;;;;4956317;28;20045;-73
2024/03/30 10:01:37;;;;;;;11.57;3.95;;;21.40;66.00;;;;;;4971500;28;20490;-75
2024/03/30 10:04:04;;;;;;;7.43;2.80;;;21.50;66.30;;;;;;4971851;28;20057;-73
2024/03/30 10:06:42;;;;;;;6.80;2.72;;;21.70;65.10;;;;;;4969794;28;20489;-79
2024/03/30 10:09:13;;;;;;;5.75;2.55;;;21.70;65.20;;;;;;4972862;28;20035;-75
2024/03/30 10:11:43;;;;;;;6.25;2.95;;;21.70;65.90;;;;;;4982229;28;20103;-74
2024/03/30 10:14:30;;;;;;;6.05;2.40;;;22.00;65.80;;;;;;4972671;28;20049;-74
2024/03/30 10:16:58;;;;;;;5.93;2.50;;;22.10;64.00;;;;;;4968822;28;20046;-74
2024/03/30 10:19:26;;;;;;;4.13;2.03;;;22.10;64.40;;;;;;4952981;28;20539;-74
2024/03/30 10:21:54;;;;;;;5.75;2.30;;;22.20;64.40;;;;;;4972086;28;20035;-79
2024/03/30 10:24:20;;;;;;;3.50;1.83;;;22.50;64.30;;;;;;4981619;28;20308;-74
2024/03/30 10:26:48;;;;;;;8.98;2.45;;;22.60;63.80;;;;;;4942724;28;20560;-75
2024/03/30 10:29:14;;;;;;;10.93;2.72;;;22.50;62.80;;;;;;4968327;28;20042;-70
2024/03/30 10:32:06;;;;;;;7.45;2.58;;;22.80;62.10;;;;;;4972289;28;20023;-69
2024/03/30 10:34:33;;;;;;;5.45;2.38;;;23.00;61.20;;;;;;4967567;28;20425;-68
2024/03/30 10:36:59;;;;;;;8.70;2.42;;;22.90;60.50;;;;;;4974195;28;20034;-70
2024/03/30 10:39:28;;;;;;;17.25;9.35;;;23.00;60.80;;;;;;4957740;28;20030;-71
2024/03/30 10:41:55;;;;;;;71.18;41.75;;;23.00;61.00;;;;;;4971046;28;20738;-70
2024/03/30 10:44:25;;;;;;;38.90;24.25;;;23.20;61.20;;;;;;4975863;28;20049;-69
2024/03/30 10:46:52;;;;;;;;;;;23.30;61.40;;;;;;4974609;28;20047;-71
2024/03/30 10:49:18;;;;;;;36.00;23.35;;;23.50;61.30;;;;;;4973547;28;20016;-69
2024/03/30 10:51:45;;;;;;;18.05;12.95;;;23.70;60.80;;;;;;4974637;28;20467;-69
2024/03/30 10:54:18;;;;;;;19.90;12.98;;;23.90;60.40;;;;;;4971734;28;20050;-70
2024/03/30 10:56:52;;;;;;;7.78;3.42;;;23.90;60.20;;;;;;4972552;28;20073;-70
2024/03/30 10:59:19;;;;;;;7.55;2.83;;;23.90;59.40;;;;;;4980559;28;20035;-72
2024/03/30 11:02:07;;;;;;;6.97;2.25;;;24.00;58.80;;;;;;4968956;28;20043;-70
2024/03/30 11:04:34;;;;;;;8.55;2.35;;;24.10;59.20;;;;;;4962695;28;20054;-70
2024/03/30 11:07:00;;;;;;;8.02;2.10;;;24.10;58.30;;;;;;4962016;28;20038;-70
2024/03/30 11:09:28;;;;;;;4.65;1.90;;;24.10;57.80;;;;;;4968109;28;20039;-70
2024/03/30 11:11:55;;;;;;;6.10;2.17;;;24.20;57.80;;;;;;4969842;28;20057;-70
2024/03/30 11:14:21;;;;;;;5.70;2.13;;;24.30;56.40;;;;;;4971417;28;20027;-68
2024/03/30 11:16:51;;;;;;;6.47;2.10;;;24.30;56.60;;;;;;4983293;28;20042;-70
2024/03/30 11:19:23;;;;;;;;;;;24.40;57.20;;;;;;4970209;28;20527;-71
2024/03/30 11:22:09;;;;;;;5.05;1.98;;;24.40;56.60;;;;;;4980166;28;20277;-69
2024/03/30 11:24:41;;;;;;;7.47;4.40;;;24.60;56.50;;;;;;4962820;28;20051;-71
2024/03/30 11:27:16;;;;;;;9.60;4.70;;;24.70;56.00;;;;;;4969566;28;20039;-67
2024/03/30 11:30:15;;;;;;;7.63;2.88;;;24.80;56.60;;;;;;4974449;28;20038;-69
2024/03/30 11:32:51;;;;;;;7.15;2.92;;;25.00;56.60;;;;;;4975476;28;20027;-71
2024/03/30 11:35:22;;;;;;;6.90;2.25;;;25.30;55.70;;;;;;4985336;28;20030;-70
2024/03/30 11:37:54;;;;;;;9.55;3.58;;;25.40;54.80;;;;;;4972821;28;20051;-69
2024/03/30 11:40:56;;;;;;;15.05;11.30;;;25.70;55.70;;;;;;4957682;28;20428;-71
2024/03/30 11:43:31;;;;;;;12.15;2.42;;;25.90;55.10;;;;;;4974067;28;20030;-68
2024/03/30 11:45:58;;;;;;;5.30;1.70;;;25.90;55.10;;;;;;4976075;28;20432;-68
2024/03/30 11:48:25;;;;;;;6.43;1.98;;;26.00;54.70;;;;;;4974691;28;20035;-68
2024/03/30 11:50:51;;;;;;;7.68;2.42;;;26.10;54.00;;;;;;4979645;28;20031;-66
2024/03/30 11:53:21;;;;;;;4.68;2.10;;;25.90;54.10;;;;;;4968471;28;20039;-68
2024/03/30 11:55:53;;;;;;;8.70;2.30;;;26.40;55.00;;;;;;4981424;28;20171;-69
2024/03/30 11:58:23;;;;;;;9.30;3.20;;;26.90;54.50;;;;;;4966714;28;20049;-70
2024/03/30 12:00:52;;;;;;;9.70;2.90;;;27.10;54.00;;;;;;4972569;28;20038;-73
2024/03/30 12:03:18;;;;;;;5.68;2.55;;;27.20;53.30;;;;;;4977140;28;20478;-70
2024/03/30 12:05:47;;;;;;;8.20;2.53;;;27.40;53.90;;;;;;4982711;28;20038;-70
2024/03/30 12:08:17;;;;;;;5.63;2.20;;;27.50;53.90;;;;;;4990367;28;20397;-70
2024/03/30 12:10:53;;;;;;;7.10;2.47;;;27.30;52.70;;;;;;4973924;28;20034;-71
2024/03/30 12:13:24;;;;;;;10.70;2.03;;;27.50;53.50;;;;;;4970380;28;20043;-69
2024/03/30 12:15:50;;;;;;;5.45;2.03;;;27.90;53.10;;;;;;4957477;28;20039;-71
2024/03/30 12:18:18;;;;;;;5.53;2.03;;;27.90;52.20;;;;;;4972480;28;20037;-71
2024/03/30 12:20:46;;;;;;;5.07;1.80;;;28.00;51.80;;;;;;4973975;28;20035;-68
2024/03/30 12:23:12;;;;;;;7.32;2.53;;;27.80;52.20;;;;;;4981561;28;20034;-70
2024/03/30 12:25:42;;;;;;;5.97;1.90;;;28.50;52.80;;;;;;4976341;28;20042;-71
2024/03/30 12:28:09;;;;;;;3.40;1.65;;;33.50;49.60;;;;;;4972624;28;20409;-72
2024/03/30 12:30:43;;;;;;;12.27;1.95;;;35.70;45.90;;;;;;4965825;28;20034;-72
2024/03/30 12:33:11;;;;;;;4.45;1.40;;;36.70;45.00;;;;;;4970183;28;20038;-69
2024/03/30 12:35:38;;;;;;;8.70;4.38;;;37.10;44.50;;;;;;4958971;28;20052;-70
2024/03/30 12:38:04;;;;;;;5.43;2.85;;;37.40;43.90;;;;;;4976135;28;20053;-70
2024/03/30 12:40:32;;;;;;;7.43;1.83;;;38.60;42.10;;;;;;4989202;28;20038;-70
2024/03/30 12:43:02;;;;;;;4.75;1.42;;;38.30;42.00;;;;;;4974192;28;20045;-70
2024/03/30 12:45:32;;;;;;;8.48;2.28;;;37.90;41.80;;;;;;4969517;28;20088;-71
2024/03/30 12:47:59;;;;;;;5.30;1.90;;;39.00;41.70;;;;;;4969885;28;20046;-71
2024/03/30 12:50:26;;;;;;;6.28;1.40;;;39.70;41.60;;;;;;4970071;28;20386;-70